Back to Top

Language: 

My Weather Underground Personal Weather Station Historical Data with Graphs...

Delerius Weather Station Historical Data
Daily Summary for September 30, 2017 Units:  Metric    English   Both
« Previous Day
Next Day »
Daily Weekly Monthly Yearly Custom
  High: Low: Average:
Temperature: 15.7 °C 8.3 °C 11.9 °C
Dew Point: 12.1 °C 6.8 °C 9.9 °C
Humidity: 96 % 73 % 87 %
Wind Speed: 20.9 km/h 0 km/h 7.1 km/h
Wind Gust: 37 km/h - -
Wind:- - South
Pressure: 1014.8 hPa 1010.4 hPa -
Precipitation: 1.02 mm    
Historical Graphs
 
 
Tabular Data for September 30, 2017
Time Temperature Dew Point Pressure Wind Wind Speed Wind Gust Humidity Rainfall Rate (Hourly) solar Conditions
00:01 9.9 °C 7.8 °C 1014.1 hPa SW 6.4 km/h 9.7 km/h 87 % 0 mm 0 W/m2
00:12 9.8 °C 7.7 °C 1014.1 hPa SW 6.4 km/h 11.3 km/h 87 % 0 mm 0 W/m2
00:17 9.7 °C 7.7 °C 1014.1 hPa SW 8 km/h 11.3 km/h 87 % 0 mm 0 W/m2
00:22 9.7 °C 7.7 °C 1014.1 hPa SW 8 km/h 14.5 km/h 87 % 0 mm 0 W/m2
00:27 9.6 °C 7.6 °C 1014.1 hPa SW 6.4 km/h 14.5 km/h 87 % 0 mm 0 W/m2
00:32 9.6 °C 7.7 °C 1014.1 hPa SW 8 km/h 14.5 km/h 88 % 0 mm 0 W/m2
00:37 9.6 °C 7.7 °C 1014.1 hPa SW 8 km/h 14.5 km/h 88 % 0 mm 0 W/m2
00:42 9.6 °C 7.7 °C 1014.1 hPa SW 8 km/h 14.5 km/h 88 % 0 mm 0 W/m2
00:47 9.6 °C 7.6 °C 1014.1 hPa SW 8 km/h 12.9 km/h 87 % 0 mm 0 W/m2
00:52 9.6 °C 7.7 °C 1014.1 hPa SW 8 km/h 14.5 km/h 88 % 0 mm 0 W/m2
00:57 9.7 °C 7.8 °C 1014.1 hPa SW 9.7 km/h 14.5 km/h 88 % 0 mm 0 W/m2
01:02 9.7 °C 7.7 °C 1014.1 hPa SW 9.7 km/h 16.1 km/h 87 % 0 mm 0 W/m2
01:07 9.7 °C 7.7 °C 1014.1 hPa SW 9.7 km/h 16.1 km/h 87 % 0 mm 0 W/m2
01:12 9.6 °C 7.6 °C 1014.1 hPa SW 9.7 km/h 14.5 km/h 87 % 0 mm 0 W/m2
01:17 9.7 °C 7.7 °C 1014.1 hPa SW 11.3 km/h 16.1 km/h 87 % 0 mm 0 W/m2
01:22 9.7 °C 7.7 °C 1014.1 hPa SW 11.3 km/h 16.1 km/h 87 % 0 mm 0 W/m2
01:27 9.7 °C 7.7 °C 1014.1 hPa SW 9.7 km/h 16.1 km/h 87 % 0 mm 0 W/m2
01:32 9.6 °C 7.6 °C 1014.4 hPa SW 9.7 km/h 14.5 km/h 87 % 0 mm 0 W/m2
01:37 9.6 °C 7.6 °C 1014.4 hPa SW 11.3 km/h 16.1 km/h 87 % 0 mm 0 W/m2
01:42 9.6 °C 7.6 °C 1014.4 hPa SW 11.3 km/h 16.1 km/h 87 % 0 mm 0 W/m2
01:47 9.5 °C 7.4 °C 1014.1 hPa SW 9.7 km/h 16.1 km/h 87 % 0 mm 0 W/m2
01:52 9.5 °C 7.4 °C 1014.1 hPa SW 8 km/h 16.1 km/h 87 % 0 mm 0 W/m2
01:57 9.4 °C 7.5 °C 1014.1 hPa SW 8 km/h 12.9 km/h 88 % 0 mm 0 W/m2
02:02 9.4 °C 7.5 °C 1014.1 hPa SW 8 km/h 12.9 km/h 88 % 0 mm 0 W/m2
02:07 9.5 °C 7.6 °C 1014.1 hPa SSW 6.4 km/h 14.5 km/h 88 % 0 mm 0 W/m2
02:12 9.6 °C 7.7 °C 1014.1 hPa SSW 6.4 km/h 14.5 km/h 88 % 0 mm 0 W/m2
02:17 9.7 °C 7.7 °C 1014.1 hPa SSW 8 km/h 16.1 km/h 87 % 0 mm 0 W/m2
02:23 9.8 °C 7.7 °C 1014.1 hPa SSW 9.7 km/h 16.1 km/h 87 % 0 mm 0 W/m2
02:28 9.9 °C 7.8 °C 1014.1 hPa SSW 9.7 km/h 16.1 km/h 87 % 0 mm 0 W/m2
02:33 9.9 °C 7.7 °C 1014.4 hPa SSW 9.7 km/h 16.1 km/h 86 % 0 mm 0 W/m2
02:38 9.9 °C 7.7 °C 1014.1 hPa SSW 9.7 km/h 16.1 km/h 86 % 0 mm 0 W/m2
02:43 9.9 °C 7.7 °C 1014.1 hPa SSW 8 km/h 14.5 km/h 86 % 0 mm 0 W/m2
02:48 9.9 °C 7.7 °C 1014.1 hPa SSW 8 km/h 14.5 km/h 86 % 0 mm 0 W/m2
02:53 9.9 °C 7.7 °C 1014.1 hPa SW 6.4 km/h 14.5 km/h 86 % 0 mm 0 W/m2
02:58 9.8 °C 7.6 °C 1014.1 hPa SW 4.8 km/h 11.3 km/h 86 % 0 mm 0 W/m2
03:03 9.7 °C 7.4 °C 1014.1 hPa SSW 3.2 km/h 11.3 km/h 86 % 0 mm 0 W/m2
03:08 9.5 °C 7.3 °C 1014.1 hPa Calm   6.4 km/h 86 % 0 mm 0 W/m2
03:13 9.3 °C 7.1 °C 1014.1 hPa Calm   3.2 km/h 86 % 0 mm 0 W/m2
03:18 9.1 °C 7.1 °C 1014.1 hPa Calm   4.8 km/h 87 % 0 mm 0 W/m2
03:23 8.9 °C 6.8 °C 1014.4 hPa Calm   4.8 km/h 87 % 0 mm 0 W/m2
03:28 8.8 °C 6.9 °C 1014.1 hPa Calm   3.2 km/h 88 % 0 mm 0 W/m2
03:33 8.7 °C 7 °C 1014.1 hPa East 1.6 km/h 8 km/h 89 % 0 mm 0 W/m2
03:38 8.7 °C 7 °C 1014.1 hPa East 1.6 km/h 8 km/h 89 % 0 mm 0 W/m2
03:43 8.6 °C 7.1 °C 1014.1 hPa ESE 3.2 km/h 8 km/h 90 % 0 mm 0 W/m2
03:48 8.5 °C 6.9 °C 1014.1 hPa ESE 1.6 km/h 8 km/h 90 % 0 mm 0 W/m2
03:53 8.4 °C 6.8 °C 1014.1 hPa East 1.6 km/h 8 km/h 90 % 0 mm 0 W/m2
03:58 8.4 °C 6.8 °C 1014.1 hPa East 1.6 km/h 8 km/h 90 % 0 mm 0 W/m2
04:03 8.4 °C 6.8 °C 1014.1 hPa East 3.2 km/h 8 km/h 90 % 0 mm 0 W/m2
04:08 8.4 °C 7 °C 1014.1 hPa East 3.2 km/h 8 km/h 91 % 0 mm 0 W/m2
04:13 8.3 °C 6.9 °C 1014.1 hPa East 1.6 km/h 8 km/h 91 % 0 mm 0 W/m2
04:18 8.3 °C 6.9 °C 1014.1 hPa Calm   4.8 km/h 91 % 0 mm 0 W/m2
04:23 8.3 °C 6.9 °C 1014.1 hPa East 1.6 km/h 6.4 km/h 91 % 0 mm 0 W/m2
04:28 8.4 °C 7 °C 1014.1 hPa East 1.6 km/h 6.4 km/h 91 % 0 mm 0 W/m2
04:33 8.4 °C 7 °C 1014.1 hPa East 1.6 km/h 6.4 km/h 91 % 0 mm 0 W/m2
04:38 8.4 °C 7 °C 1013.8 hPa Calm   4.8 km/h 91 % 0 mm 0 W/m2
04:43 8.4 °C 7 °C 1013.8 hPa Calm   3.2 km/h 91 % 0 mm 0 W/m2
04:48 8.4 °C 7 °C 1013.8 hPa Calm   3.2 km/h 91 % 0 mm 0 W/m2
04:54 8.3 °C 6.9 °C 1013.8 hPa Calm     91 % 0 mm 0 W/m2
04:59 8.3 °C 6.9 °C 1013.8 hPa Calm     91 % 0 mm 0 W/m2
05:04 8.3 °C 6.9 °C 1013.8 hPa Calm   6.4 km/h 91 % 0 mm 0 W/m2
05:09 8.3 °C 7.1 °C 1013.8 hPa SE 3.2 km/h 9.7 km/h 92 % 0 mm 0 W/m2
05:14 8.4 °C 7.2 °C 1013.8 hPa SE 3.2 km/h 9.7 km/h 92 % 0 mm 0 W/m2
05:19 8.5 °C 7.3 °C 1013.8 hPa SE 1.6 km/h 9.7 km/h 92 % 0 mm 0 W/m2
05:24 8.6 °C 7.4 °C 1013.8 hPa SE 1.6 km/h 6.4 km/h 92 % 0 mm 0 W/m2
05:29 8.6 °C 7.4 °C 1013.8 hPa ESE 1.6 km/h 6.4 km/h 92 % 0 mm 0 W/m2
05:34 8.7 °C 7.5 °C 1013.8 hPa ENE 3.2 km/h 9.7 km/h 92 % 0 mm 0 W/m2
05:39 8.7 °C 7.5 °C 1013.8 hPa ENE 3.2 km/h 9.7 km/h 92 % 0 mm 0 W/m2
05:44 8.7 °C 7.3 °C 1013.8 hPa ENE 1.6 km/h 6.4 km/h 91 % 0 mm 0 W/m2
05:49 8.7 °C 7.3 °C 1013.8 hPa ENE 1.6 km/h 8 km/h 91 % 0 mm 0 W/m2
05:54 8.8 °C 7.4 °C 1014.1 hPa Calm   8 km/h 91 % 0 mm 0 W/m2
05:55 8.8 °C 7.4 °C 1013.8 hPa Calm   8 km/h 91 % 0 mm 0 W/m2
06:00 8.7 °C 7.3 °C 1014.1 hPa SSW 1.6 km/h 8 km/h 91 % 0 mm 0 W/m2
06:05 8.9 °C 7.7 °C 1014.1 hPa SSW 4.8 km/h 20.9 km/h 92 % 0 mm 0 W/m2
06:10 9.1 °C 7.9 °C 1014.1 hPa SSW 11.3 km/h 20.9 km/h 92 % 0 mm 0 W/m2
06:15 9.4 °C 8 °C 1014.1 hPa SSW 12.9 km/h 19.3 km/h 91 % 0 mm 0 W/m2
06:20 9.6 °C 8.1 °C 1014.1 hPa SSW 12.9 km/h 20.9 km/h 90 % 0 mm 0 W/m2
06:25 9.7 °C 8 °C 1014.1 hPa SSW 14.5 km/h 20.9 km/h 89 % 0 mm 0 W/m2
06:30 9.8 °C 8.1 °C 1014.1 hPa SSW 12.9 km/h 20.9 km/h 89 % 0 mm 0 W/m2
06:35 9.8 °C 7.9 °C 1014.1 hPa SW 12.9 km/h 20.9 km/h 88 % 0 mm 0 W/m2
06:40 9.7 °C 7.8 °C 1014.1 hPa SW 12.9 km/h 17.7 km/h 88 % 0 mm 0 W/m2
06:45 9.7 °C 7.8 °C 1014.1 hPa SW 12.9 km/h 20.9 km/h 88 % 0 mm 0 W/m2
06:50 9.7 °C 7.8 °C 1014.1 hPa SW 12.9 km/h 20.9 km/h 88 % 0 mm 0 W/m2
06:55 9.7 °C 7.8 °C 1014.1 hPa SW 11.3 km/h 19.3 km/h 88 % 0 mm 0 W/m2
07:00 9.7 °C 7.8 °C 1014.1 hPa SW 9.7 km/h 14.5 km/h 88 % 0 mm 0 W/m2
07:05 9.6 °C 7.7 °C 1014.1 hPa SSW 9.7 km/h 16.1 km/h 88 % 0 mm 0 W/m2
07:10 9.6 °C 7.9 °C 1014.1 hPa SSW 9.7 km/h 16.1 km/h 89 % 0 mm 0 W/m2
07:15 9.6 °C 7.9 °C 1014.1 hPa SSW 9.7 km/h 12.9 km/h 89 % 0 mm 5 W/m2
07:20 9.6 °C 7.9 °C 1014.1 hPa SSW 9.7 km/h 19.3 km/h 89 % 0 mm 7 W/m2
07:25 9.7 °C 8 °C 1014.1 hPa SW 11.3 km/h 19.3 km/h 89 % 0 mm 9 W/m2
07:31 9.8 °C 8.1 °C 1014.1 hPa SW 11.3 km/h 19.3 km/h 89 % 0 mm 11 W/m2
07:36 9.9 °C 8.2 °C 1014.1 hPa SW 12.9 km/h 22.5 km/h 89 % 0 mm 11 W/m2
07:41 9.9 °C 8.2 °C 1014.1 hPa SW 12.9 km/h 22.5 km/h 89 % 0 mm 12 W/m2
07:46 10 °C 8.1 °C 1013.8 hPa SW 11.3 km/h 20.9 km/h 88 % 0 mm 16 W/m2
07:51 10.1 °C 8.2 °C 1013.8 hPa SW 11.3 km/h 16.1 km/h 88 % 0 mm 21 W/m2
07:56 10.1 °C 8.2 °C 1014.1 hPa SW 8 km/h 16.1 km/h 88 % 0 mm 21 W/m2
08:01 10.1 °C 8.2 °C 1014.1 hPa SW 4.8 km/h 11.3 km/h 88 % 0 mm 23 W/m2
08:06 10.1 °C 8.2 °C 1014.1 hPa SW 1.6 km/h 9.7 km/h 88 % 0 mm 25 W/m2
08:11 10.1 °C 8.2 °C 1014.1 hPa SSE 3.2 km/h 9.7 km/h 88 % 0 mm 25 W/m2
08:16 10.1 °C 8.2 °C 1014.1 hPa SSE 8 km/h 14.5 km/h 88 % 0 mm 25 W/m2
08:21 10.2 °C 8.3 °C 1014.4 hPa SSE 9.7 km/h 17.7 km/h 88 % 0 mm 26 W/m2
08:22 10.1 °C 8.2 °C 1014.4 hPa SSE 11.3 km/h 17.7 km/h 88 % 0 mm 26 W/m2
08:27 10.2 °C 8.3 °C 1014.4 hPa SSE 11.3 km/h 17.7 km/h 88 % 0 mm 26 W/m2
08:32 10.3 °C 8.4 °C 1014.4 hPa SSE 9.7 km/h 16.1 km/h 88 % 0 mm 30 W/m2
08:37 10.3 °C 8.4 °C 1014.4 hPa South 8 km/h 14.5 km/h 88 % 0 mm 39 W/m2
08:42 10.4 °C 8.5 °C 1014.4 hPa South 8 km/h 14.5 km/h 88 % 0 mm 33 W/m2
08:47 10.5 °C 8.6 °C 1014.4 hPa South 6.4 km/h 12.9 km/h 88 % 0 mm 37 W/m2
08:52 10.6 °C 8.7 °C 1014.4 hPa South 6.4 km/h 12.9 km/h 88 % 0 mm 47 W/m2
08:57 10.6 °C 8.7 °C 1014.4 hPa South 4.8 km/h 11.3 km/h 88 % 0 mm 65 W/m2
09:02 10.6 °C 8.7 °C 1014.4 hPa South 6.4 km/h 12.9 km/h 88 % 0 mm 72 W/m2
09:05 10.7 °C 8.8 °C 1014.4 hPa SSE 6.4 km/h 12.9 km/h 88 % 0 mm 97 W/m2
09:10 10.8 °C 8.9 °C 1014.1 hPa SSE 8 km/h 17.7 km/h 88 % 0 mm 105 W/m2
09:15 10.9 °C 8.8 °C 1014.4 hPa SSE 8 km/h 17.7 km/h 87 % 0 mm 88 W/m2
09:20 11.1 °C 9 °C 1014.4 hPa South 6.4 km/h 12.9 km/h 87 % 0 mm 105 W/m2
09:25 11.2 °C 9.1 °C 1014.8 hPa South 6.4 km/h 14.5 km/h 87 % 0 mm 130 W/m2
09:30 11.3 °C 9.2 °C 1014.4 hPa South 4.8 km/h 14.5 km/h 87 % 0 mm 174 W/m2
09:34 11.4 °C 9.3 °C 1014.4 hPa South 3.2 km/h 9.7 km/h 87 % 0 mm 183 W/m2
09:39 11.6 °C 9.5 °C 1014.4 hPa South 3.2 km/h 11.3 km/h 87 % 0 mm 322 W/m2
09:44 11.8 °C 9.6 °C 1014.4 hPa SSE 3.2 km/h 11.3 km/h 86 % 0 mm 132 W/m2
09:49 11.9 °C 9.4 °C 1014.4 hPa SSE 4.8 km/h 9.7 km/h 85 % 0 mm 128 W/m2
09:54 12 °C 9.6 °C 1014.4 hPa SSE 6.4 km/h 9.7 km/h 85 % 0 mm 151 W/m2
10:04 12.1 °C 9.7 °C 1014.4 hPa South 6.4 km/h 12.9 km/h 85 % 0 mm 174 W/m2
10:09 12.2 °C 9.8 °C 1014.4 hPa SSW 8 km/h 19.3 km/h 85 % 0 mm 246 W/m2
10:14 12.4 °C 9.9 °C 1014.1 hPa SSW 8 km/h 19.3 km/h 85 % 0 mm 195 W/m2
10:19 12.6 °C 10.2 °C 1014.1 hPa SSW 8 km/h 17.7 km/h 85 % 0 mm 264 W/m2
10:24 12.7 °C 10.2 °C 1014.1 hPa SSW 11.3 km/h 19.3 km/h 85 % 0 mm 248 W/m2
10:29 12.9 °C 10.4 °C 1014.1 hPa SSW 11.3 km/h 19.3 km/h 85 % 0 mm 615 W/m2
10:34 13.3 °C 11 °C 1014.1 hPa SSW 9.7 km/h 20.9 km/h 86 % 0 mm 628 W/m2
10:39 13.8 °C 11.2 °C 1013.8 hPa SW 11.3 km/h 20.9 km/h 84 % 0 mm 554 W/m2
10:44 14.1 °C 10.9 °C 1013.8 hPa SW 14.5 km/h 29 km/h 81 % 0 mm 332 W/m2
10:54 13.9 °C 10.5 °C 1013.8 hPa SW 16.1 km/h 33.8 km/h 80 % 0 mm 181 W/m2
10:59 13.9 °C 10.7 °C 1013.8 hPa SW 14.5 km/h 33.8 km/h 81 % 0 mm 438 W/m2
11:04 14.2 °C 11 °C 1013.8 hPa SW 14.5 km/h 33.8 km/h 81 % 0 mm 664 W/m2
11:09 14.4 °C 11 °C 1013.8 hPa SW 17.7 km/h 33.8 km/h 80 % 0 mm 717 W/m2
11:14 14.6 °C 11 °C 1013.8 hPa WSW 19.3 km/h 33.8 km/h 79 % 0 mm 710 W/m2
11:19 14.6 °C 10.8 °C 1013.8 hPa SW 20.9 km/h 35.4 km/h 78 % 0 mm 399 W/m2
11:24 14.4 °C 10.8 °C 1013.8 hPa SW 20.9 km/h 37 km/h 79 % 0 mm 413 W/m2
11:29 14.4 °C 10.6 °C 1013.8 hPa SW 20.9 km/h 37 km/h 78 % 0 mm 633 W/m2
11:34 14.5 °C 10.7 °C 1013.8 hPa SSW 19.3 km/h 35.4 km/h 78 % 0 mm 288 W/m2
11:39 14.8 °C 11 °C 1013.4 hPa SSW 16.1 km/h 29 km/h 78 % 0 mm 701 W/m2
11:44 14.9 °C 10.9 °C 1013.4 hPa SW 14.5 km/h 32.2 km/h 77 % 0 mm 162 W/m2
11:49 14.9 °C 10.9 °C 1013.4 hPa SW 16.1 km/h 33.8 km/h 77 % 0 mm 309 W/m2
11:54 14.7 °C 10.7 °C 1013.4 hPa SSW 17.7 km/h 33.8 km/h 77 % 0 mm 698 W/m2
11:59 14.7 °C 10.5 °C 1013.4 hPa SSW 19.3 km/h 37 km/h 76 % 0 mm 243 W/m2
12:04 14.6 °C 10 °C 1013.4 hPa SSW 20.9 km/h 37 km/h 74 % 0 mm 225 W/m2
12:10 14.3 °C 9.7 °C 1013.1 hPa SSW 19.3 km/h 35.4 km/h 74 % 0 mm 153 W/m2
12:15 14.3 °C 9.9 °C 1013.1 hPa SSW 17.7 km/h 30.6 km/h 75 % 0 mm 631 W/m2
12:20 14.6 °C 10.6 °C 1013.1 hPa SSW 14.5 km/h 25.7 km/h 77 % 0 mm 636 W/m2
12:25 14.9 °C 10.3 °C 1013.1 hPa SW 16.1 km/h 30.6 km/h 74 % 0 mm 765 W/m2
12:30 15 °C 10.4 °C 1013.1 hPa SW 17.7 km/h 30.6 km/h 74 % 0 mm 255 W/m2
12:35 15 °C 10.6 °C 1013.1 hPa SW 12.9 km/h 29 km/h 75 % 0 mm 174 W/m2
12:40 15 °C 10.8 °C 1013.1 hPa SW 9.7 km/h 17.7 km/h 76 % 0 mm 167 W/m2
12:45 14.9 °C 10.7 °C 1013.1 hPa SW 11.3 km/h 22.5 km/h 76 % 0 mm 172 W/m2
12:50 14.6 °C 10.4 °C 1013.1 hPa SSW 14.5 km/h 30.6 km/h 76 % 0 mm 188 W/m2
12:55 14.4 °C 10.4 °C 1013.1 hPa SSW 14.5 km/h 30.6 km/h 77 % 0 mm 139 W/m2
13:00 14.4 °C 10.6 °C 1012.8 hPa SW 11.3 km/h 22.5 km/h 78 % 0 mm 578 W/m2
13:05 14.7 °C 10.9 °C 1012.8 hPa SW 9.7 km/h 20.9 km/h 78 % 0 mm 334 W/m2
13:10 14.9 °C 11.1 °C 1012.8 hPa SW 9.7 km/h 20.9 km/h 78 % 0 mm 209 W/m2
13:15 14.9 °C 10.7 °C 1012.8 hPa SW 11.3 km/h 19.3 km/h 76 % 0 mm 176 W/m2
13:20 14.9 °C 10.7 °C 1012.8 hPa SW 11.3 km/h 19.3 km/h 76 % 0 mm 220 W/m2
13:25 14.8 °C 10.4 °C 1012.8 hPa SSW 12.9 km/h 20.9 km/h 75 % 0 mm 204 W/m2
13:30 14.8 °C 10.6 °C 1012.4 hPa SSW 12.9 km/h 22.5 km/h 76 % 0 mm 146 W/m2
13:35 14.8 °C 10.6 °C 1012.4 hPa SSW 12.9 km/h 22.5 km/h 76 % 0 mm 243 W/m2
13:40 14.9 °C 10.7 °C 1012.4 hPa SW 12.9 km/h 19.3 km/h 76 % 0 mm 193 W/m2
13:45 15 °C 10.6 °C 1012.4 hPa SW 12.9 km/h 24.1 km/h 75 % 0 mm 149 W/m2
13:50 15 °C 10.4 °C 1012.4 hPa SW 14.5 km/h 24.1 km/h 74 % 0 mm 114 W/m2
13:55 15 °C 10.6 °C 1012.4 hPa SW 12.9 km/h 24.1 km/h 75 % 0 mm 209 W/m2
14:00 15 °C 10.6 °C 1012.4 hPa SW 12.9 km/h 20.9 km/h 75 % 0 mm 271 W/m2
14:05 15.2 °C 10.8 °C 1012.4 hPa SW 12.9 km/h 20.9 km/h 75 % 0 mm 274 W/m2
14:10 15.4 °C 10.6 °C 1012.4 hPa SW 14.5 km/h 19.3 km/h 73 % 0 mm 225 W/m2
14:15 15.5 °C 10.7 °C 1012.1 hPa SW 12.9 km/h 19.3 km/h 73 % 0 mm 253 W/m2
14:20 15.6 °C 10.8 °C 1012.1 hPa SW 12.9 km/h 25.7 km/h 73 % 0 mm 471 W/m2
14:25 15.7 °C 11.1 °C 1012.1 hPa SW 12.9 km/h 25.7 km/h 74 % 0 mm 213 W/m2
14:30 15.7 °C 11.1 °C 1012.4 hPa SSW 11.3 km/h 19.3 km/h 74 % 0 mm 141 W/m2
14:35 15.5 °C 10.9 °C 1012.4 hPa SSW 14.5 km/h 29 km/h 74 % 0 mm 148 W/m2
14:36 15.5 °C 10.9 °C 1012.4 hPa SSW 14.5 km/h 29 km/h 74 % 0 mm 148 W/m2
14:41 15.3 °C 10.7 °C 1012.4 hPa SSW 14.5 km/h 29 km/h 74 % 0 mm 114 W/m2
14:46 15.3 °C 10.7 °C 1012.1 hPa SW 12.9 km/h 20.9 km/h 74 % 0 mm 192 W/m2
14:51 15.2 °C 11 °C 1012.1 hPa SW 9.7 km/h 16.1 km/h 76 % 0 mm 209 W/m2
14:56 15.3 °C 11.1 °C 1012.4 hPa SW 11.3 km/h 22.5 km/h 76 % 0 mm 169 W/m2
15:01 15.3 °C 11.1 °C 1012.4 hPa SW 12.9 km/h 22.5 km/h 76 % 0 mm 116 W/m2
15:06 15.3 °C 11.3 °C 1012.1 hPa SW 9.7 km/h 19.3 km/h 77 % 0 mm 114 W/m2
15:11 15.2 °C 11.2 °C 1012.1 hPa SW 8 km/h 16.1 km/h 77 % 0 mm 105 W/m2
15:16 15.2 °C 11.2 °C 1012.1 hPa SW 6.4 km/h 16.1 km/h 77 % 0 mm 74 W/m2
15:21 15.1 °C 11.1 °C 1012.1 hPa SW 9.7 km/h 16.1 km/h 77 % 0 mm 51 W/m2
15:26 15 °C 11 °C 1012.4 hPa SW 11.3 km/h 17.7 km/h 77 % 0 mm 42 W/m2
15:31 14.9 °C 11.3 °C 1012.4 hPa SW 9.7 km/h 17.7 km/h 79 % 0 mm 63 W/m2
15:36 14.9 °C 11.5 °C 1012.1 hPa SW 8 km/h 12.9 km/h 80 % 0 mm 58 W/m2
15:41 14.8 °C 11.6 °C 1012.1 hPa SW 8 km/h 16.1 km/h 81 % 0 mm 51 W/m2
15:46 14.6 °C 11.6 °C 1012.1 hPa SSW 11.3 km/h 20.9 km/h 82 % 0 mm 39 W/m2
15:51 14.3 °C 11.4 °C 1012.4 hPa SSW 12.9 km/h 25.7 km/h 83 % 0 mm 58 W/m2
15:56 14.1 °C 11.6 °C 1012.4 hPa SSW 12.9 km/h 25.7 km/h 85 % 0.25 mm 83 W/m2
16:01 13.9 °C 11.6 °C 1012.4 hPa SW 11.3 km/h 19.3 km/h 86 % 0.25 mm 91 W/m2
16:06 13.7 °C 11.4 °C 1012.1 hPa SSW 9.7 km/h 19.3 km/h 86 % 0.25 mm 76 W/m2
16:11 13.6 °C 11.5 °C 1012.1 hPa SSW 8 km/h 17.7 km/h 87 % 0.25 mm 114 W/m2
16:16 13.6 °C 11.7 °C 1012.1 hPa SW 6.4 km/h 14.5 km/h 88 % 0.25 mm 90 W/m2
16:21 13.5 °C 11.6 °C 1012.1 hPa SW 4.8 km/h 9.7 km/h 88 % 0.25 mm 81 W/m2
16:26 13.5 °C 11.7 °C 1012.1 hPa SSW 4.8 km/h 14.5 km/h 89 % 0.25 mm 76 W/m2
16:31 13.5 °C 11.7 °C 1012.4 hPa SSW 8 km/h 16.1 km/h 89 % 0.25 mm 49 W/m2
16:36 13.4 °C 11.6 °C 1012.4 hPa SSW 9.7 km/h 19.3 km/h 89 % 0.25 mm 56 W/m2
16:41 13.4 °C 11.6 °C 1012.4 hPa SSW 8 km/h 19.3 km/h 89 % 0.25 mm 56 W/m2
16:46 13.4 °C 11.6 °C 1012.4 hPa SSW 6.4 km/h 12.9 km/h 89 % 0.25 mm 47 W/m2
16:51 13.4 °C 11.6 °C 1012.4 hPa SSW 8 km/h 14.5 km/h 89 % 0 mm 42 W/m2
16:56 13.4 °C 11.6 °C 1012.4 hPa SW 8 km/h 14.5 km/h 89 % 0 mm 53 W/m2
17:01 13.3 °C 11.7 °C 1012.4 hPa SSW 6.4 km/h 11.3 km/h 90 % 0.25 mm 58 W/m2
17:06 13.3 °C 11.7 °C 1012.4 hPa SSW 6.4 km/h 11.3 km/h 90 % 0.25 mm 65 W/m2
17:11 13.3 °C 11.9 °C 1012.4 hPa SSW 4.8 km/h 9.7 km/h 91 % 0.25 mm 74 W/m2
17:16 13.3 °C 11.9 °C 1012.4 hPa SW 3.2 km/h 9.7 km/h 91 % 0.25 mm 77 W/m2
17:17 13.2 °C 11.8 °C 1012.4 hPa SW 3.2 km/h 9.7 km/h 91 % 0.25 mm 83 W/m2
17:22 13.3 °C 11.9 °C 1012.4 hPa Calm   6.4 km/h 91 % 0.25 mm 100 W/m2
17:27 13.3 °C 11.9 °C 1012.4 hPa Calm   3.2 km/h 91 % 0.25 mm 53 W/m2
17:32 13.3 °C 11.9 °C 1012.4 hPa SW 1.6 km/h 6.4 km/h 91 % 0.25 mm 40 W/m2
17:37 13.3 °C 12 °C 1012.4 hPa SW 1.6 km/h 6.4 km/h 92 % 0.25 mm 30 W/m2
17:42 13.3 °C 11.9 °C 1012.8 hPa SW 1.6 km/h 6.4 km/h 91 % 0.25 mm 33 W/m2
17:47 13.3 °C 12 °C 1012.4 hPa SW 1.6 km/h 6.4 km/h 92 % 0.25 mm 35 W/m2
17:52 13.3 °C 12 °C 1012.4 hPa Calm   4.8 km/h 92 % 0.25 mm 32 W/m2
17:57 13.3 °C 12 °C 1012.4 hPa Calm   4.8 km/h 92 % 0 mm 42 W/m2
18:02 13.3 °C 12 °C 1012.4 hPa Calm   4.8 km/h 92 % 0 mm 39 W/m2
18:08 13.3 °C 12 °C 1012.4 hPa SW 1.6 km/h 8 km/h 92 % 0 mm 32 W/m2
18:13 13.3 °C 12 °C 1012.4 hPa South 1.6 km/h 8 km/h 92 % 0 mm 18 W/m2
18:18 13.3 °C 12 °C 1012.4 hPa South 1.6 km/h 6.4 km/h 92 % 0 mm 14 W/m2
18:23 13.2 °C 11.9 °C 1012.8 hPa South 1.6 km/h 8 km/h 92 % 0 mm 14 W/m2
18:28 13.2 °C 11.9 °C 1012.8 hPa South 3.2 km/h 8 km/h 92 % 0 mm 7 W/m2
18:33 13.2 °C 11.9 °C 1012.4 hPa South 1.6 km/h 6.4 km/h 92 % 0 mm 5 W/m2
18:38 13.2 °C 11.9 °C 1012.4 hPa Calm   3.2 km/h 92 % 0 mm 0 W/m2
18:43 13.2 °C 11.9 °C 1012.4 hPa Calm   3.2 km/h 92 % 0 mm 0 W/m2
18:48 13.1 °C 11.8 °C 1012.4 hPa Calm   3.2 km/h 92 % 0 mm 0 W/m2
18:53 13.1 °C 11.8 °C 1012.4 hPa Calm   1.6 km/h 92 % 0 mm 0 W/m2
18:58 13.1 °C 11.8 °C 1012.4 hPa Calm   8 km/h 92 % 0 mm 0 W/m2
19:03 13 °C 11.9 °C 1012.4 hPa SSE 1.6 km/h 8 km/h 93 % 0 mm 0 W/m2
19:08 13 °C 11.9 °C 1012.4 hPa SSE 1.6 km/h 8 km/h 93 % 0 mm 0 W/m2
19:13 12.9 °C 11.8 °C 1012.4 hPa SSE 1.6 km/h 8 km/h 93 % 0 mm 0 W/m2
19:18 12.9 °C 11.8 °C 1012.4 hPa SSE 1.6 km/h 6.4 km/h 93 % 0 mm 0 W/m2
19:23 12.9 °C 11.8 °C 1012.4 hPa SSE 1.6 km/h 9.7 km/h 93 % 0 mm 0 W/m2
19:28 12.8 °C 11.7 °C 1012.4 hPa SSE 3.2 km/h 9.7 km/h 93 % 0 mm 0 W/m2
19:33 12.8 °C 11.7 °C 1012.1 hPa SE 3.2 km/h 8 km/h 93 % 0 mm 0 W/m2
19:38 12.8 °C 11.7 °C 1012.4 hPa SE 4.8 km/h 9.7 km/h 93 % 0 mm 0 W/m2
19:43 12.8 °C 11.7 °C 1012.4 hPa SE 3.2 km/h 9.7 km/h 93 % 0 mm 0 W/m2
19:48 12.8 °C 11.8 °C 1012.4 hPa SE 1.6 km/h 8 km/h 94 % 0 mm 0 W/m2
19:53 12.8 °C 11.8 °C 1012.1 hPa South 1.6 km/h 8 km/h 94 % 0 mm 0 W/m2
19:58 12.7 °C 11.8 °C 1012.1 hPa South 3.2 km/h 8 km/h 94 % 0 mm 0 W/m2
20:03 12.7 °C 11.8 °C 1012.1 hPa SSE 3.2 km/h 8 km/h 94 % 0 mm 0 W/m2
20:08 12.7 °C 11.8 °C 1012.1 hPa SE 1.6 km/h 8 km/h 94 % 0.25 mm 0 W/m2
20:13 12.7 °C 11.8 °C 1012.1 hPa Calm   4.8 km/h 94 % 0.25 mm 0 W/m2
20:18 12.7 °C 11.8 °C 1012.1 hPa SE 1.6 km/h 8 km/h 94 % 0.25 mm 0 W/m2
20:23 12.7 °C 11.8 °C 1012.1 hPa SE 1.6 km/h 8 km/h 94 % 0.25 mm 0 W/m2
20:28 12.7 °C 11.8 °C 1012.1 hPa SE 1.6 km/h 6.4 km/h 94 % 0.25 mm 0 W/m2
20:33 12.7 °C 11.8 °C 1012.1 hPa SE 1.6 km/h 6.4 km/h 94 % 0.25 mm 0 W/m2
20:38 12.7 °C 11.8 °C 1012.1 hPa SE 1.6 km/h 6.4 km/h 94 % 0.25 mm 0 W/m2
20:43 12.7 °C 11.8 °C 1012.1 hPa SE 1.6 km/h 6.4 km/h 94 % 0.25 mm 0 W/m2
20:48 12.7 °C 11.8 °C 1012.1 hPa Calm   3.2 km/h 94 % 0.25 mm 0 W/m2
20:53 12.7 °C 11.9 °C 1012.1 hPa SE 1.6 km/h 3.2 km/h 95 % 0.51 mm 0 W/m2
20:58 12.7 °C 11.9 °C 1011.7 hPa ESE 3.2 km/h 8 km/h 95 % 0.51 mm 0 W/m2
21:03 12.7 °C 11.9 °C 1011.7 hPa ESE 3.2 km/h 8 km/h 95 % 0.51 mm 0 W/m2
21:08 12.7 °C 11.9 °C 1011.7 hPa ESE 4.8 km/h 11.3 km/h 95 % 0.51 mm 0 W/m2
21:18 12.7 °C 11.9 °C 1011.7 hPa SE 4.8 km/h 9.7 km/h 95 % 0.51 mm 0 W/m2
21:23 12.7 °C 11.9 °C 1011.7 hPa SE 3.2 km/h 8 km/h 95 % 0.51 mm 0 W/m2
21:28 12.7 °C 11.9 °C 1011.7 hPa SE 3.2 km/h 8 km/h 95 % 0.51 mm 0 W/m2
21:33 12.7 °C 11.9 °C 1011.7 hPa SE 3.2 km/h 8 km/h 95 % 0.51 mm 0 W/m2
21:38 12.6 °C 11.8 °C 1011.7 hPa ESE 3.2 km/h 8 km/h 95 % 0.51 mm 0 W/m2
21:43 12.7 °C 11.9 °C 1011.4 hPa ESE 4.8 km/h 9.7 km/h 95 % 0.51 mm 0 W/m2
21:48 12.6 °C 11.8 °C 1011.7 hPa ESE 4.8 km/h 9.7 km/h 95 % 0.51 mm 0 W/m2
21:53 12.7 °C 11.9 °C 1011.4 hPa ESE 4.8 km/h 9.7 km/h 95 % 0.25 mm 0 W/m2
21:58 12.6 °C 12 °C 1011.4 hPa ESE 4.8 km/h 9.7 km/h 96 % 0.25 mm 0 W/m2
22:03 12.6 °C 12 °C 1011.4 hPa SE 4.8 km/h 9.7 km/h 96 % 0 mm 0 W/m2
22:08 12.7 °C 12.1 °C 1011.4 hPa SE 4.8 km/h 9.7 km/h 96 % 0 mm 0 W/m2
22:13 12.6 °C 12 °C 1011.1 hPa ESE 3.2 km/h 9.7 km/h 96 % 0 mm 0 W/m2
22:18 12.7 °C 12.1 °C 1011.4 hPa ESE 3.2 km/h 9.7 km/h 96 % 0 mm 0 W/m2
22:23 12.7 °C 12.1 °C 1011.1 hPa East 3.2 km/h 9.7 km/h 96 % 0 mm 0 W/m2
22:28 12.7 °C 12.1 °C 1011.1 hPa ESE 3.2 km/h 9.7 km/h 96 % 0 mm 0 W/m2
22:33 12.7 °C 12.1 °C 1011.1 hPa ESE 3.2 km/h 8 km/h 96 % 0 mm 0 W/m2
22:38 12.7 °C 12.1 °C 1011.1 hPa East 3.2 km/h 9.7 km/h 96 % 0 mm 0 W/m2
22:44 12.7 °C 12.1 °C 1011.1 hPa ESE 4.8 km/h 9.7 km/h 96 % 0 mm 0 W/m2
22:49 12.7 °C 12.1 °C 1011.1 hPa SE 4.8 km/h 9.7 km/h 96 % 0 mm 0 W/m2
22:54 12.7 °C 12.1 °C 1011.1 hPa SSE 3.2 km/h 9.7 km/h 96 % 0 mm 0 W/m2
22:59 12.7 °C 12.1 °C 1011.1 hPa SSE 1.6 km/h 8 km/h 96 % 0 mm 0 W/m2
23:04 12.7 °C 12.1 °C 1011.1 hPa SSE 1.6 km/h 8 km/h 96 % 0 mm 0 W/m2
23:08 12.7 °C 12.1 °C 1010.7 hPa SSE 3.2 km/h 8 km/h 96 % 0 mm 0 W/m2
23:14 12.7 °C 12.1 °C 1010.7 hPa SSE 3.2 km/h 8 km/h 96 % 0 mm 0 W/m2
23:19 12.7 °C 12.1 °C 1010.7 hPa SE 4.8 km/h 11.3 km/h 96 % 0 mm 0 W/m2
23:24 12.7 °C 12.1 °C 1010.7 hPa SE 6.4 km/h 11.3 km/h 96 % 0 mm 0 W/m2
23:29 12.7 °C 12.1 °C 1010.7 hPa SE 4.8 km/h 11.3 km/h 96 % 0 mm 0 W/m2
23:34 12.7 °C 12.1 °C 1010.7 hPa ESE 4.8 km/h 9.7 km/h 96 % 0 mm 0 W/m2
23:39 12.7 °C 12.1 °C 1010.7 hPa ESE 6.4 km/h 9.7 km/h 96 % 0 mm 0 W/m2
23:44 12.7 °C 12.1 °C 1010.7 hPa ESE 6.4 km/h 11.3 km/h 96 % 0 mm 0 W/m2
23:49 12.7 °C 12.1 °C 1010.4 hPa ESE 4.8 km/h 11.3 km/h 96 % 0 mm 0 W/m2
23:54 12.7 °C 12.1 °C 1010.4 hPa ESE 4.8 km/h 9.7 km/h 96 % 0 mm 0 W/m2
23:59 12.7 °C 12.1 °C 1010.4 hPa ESE 4.8 km/h 9.7 km/h 96 % 0 mm 0 W/m2
Delerius-Weather
Compliments of Weather Underground - 2.25 mb

Data updates at regular intervals.